sensor_id;sensor_type;location;lat;lon;timestamp;pressure;altitude;pressure_sealevel;temperature;humidity
75681;BME280;64294;49.176;16.626;2023-02-15T00:01:11;100987.34;;;-0.08;94.16
75681;BME280;64294;49.176;16.626;2023-02-15T00:03:40;100982.75;;;-0.15;94.54
75681;BME280;64294;49.176;16.626;2023-02-15T00:06:06;100975.34;;;-0.21;94.27
75681;BME280;64294;49.176;16.626;2023-02-15T00:08:32;100977.22;;;-0.38;94.74
75681;BME280;64294;49.176;16.626;2023-02-15T00:11:05;100975.03;;;-0.47;95.55
75681;BME280;64294;49.176;16.626;2023-02-15T00:13:31;100973.84;;;-0.69;96.00
75681;BME280;64294;49.176;16.626;2023-02-15T00:16:06;100967.34;;;-0.82;96.57
75681;BME280;64294;49.176;16.626;2023-02-15T00:18:32;100962.53;;;-1.02;97.31
75681;BME280;64294;49.176;16.626;2023-02-15T00:20:58;100965.13;;;-1.18;98.02
75681;BME280;64294;49.176;16.626;2023-02-15T00:23:28;100975.44;;;-1.22;98.59
75681;BME280;64294;49.176;16.626;2023-02-15T00:26:07;100962.63;;;-1.36;99.09
75681;BME280;64294;49.176;16.626;2023-02-15T00:28:33;100972.22;;;-1.44;99.61
75681;BME280;64294;49.176;16.626;2023-02-15T00:31:06;100963.72;;;-1.57;100.00
75681;BME280;64294;49.176;16.626;2023-02-15T00:33:32;100973.69;;;-1.66;100.00
75681;BME280;64294;49.176;16.626;2023-02-15T00:36:01;100959.97;;;-1.73;100.00
75681;BME280;64294;49.176;16.626;2023-02-15T00:38:29;100968.00;;;-1.86;100.00
75681;BME280;64294;49.176;16.626;2023-02-15T00:40:57;100965.25;;;-1.86;100.00
75681;BME280;64294;49.176;16.626;2023-02-15T00:43:23;100963.78;;;-1.94;100.00
75681;BME280;64294;49.176;16.626;2023-02-15T00:45:49;100961.13;;;-2.01;100.00
75681;BME280;64294;49.176;16.626;2023-02-15T00:48:15;100967.53;;;-2.11;100.00
75681;BME280;64294;49.176;16.626;2023-02-15T00:50:41;100960.81;;;-2.10;100.00
75681;BME280;64294;49.176;16.626;2023-02-15T00:53:09;100965.59;;;-2.15;100.00
75681;BME280;64294;49.176;16.626;2023-02-15T00:55:35;100956.19;;;-2.17;100.00
75681;BME280;64294;49.176;16.626;2023-02-15T00:58:02;100959.25;;;-2.11;100.00
75681;BME280;64294;49.176;16.626;2023-02-15T01:00:27;100951.31;;;-2.06;100.00
75681;BME280;64294;49.176;16.626;2023-02-15T01:02:53;100946.97;;;-2.03;100.00
75681;BME280;64294;49.176;16.626;2023-02-15T01:05:18;100955.06;;;-1.89;100.00
75681;BME280;64294;49.176;16.626;2023-02-15T01:07:43;100946.31;;;-1.80;100.00
75681;BME280;64294;49.176;16.626;2023-02-15T01:10:09;100946.50;;;-1.68;100.00
75681;BME280;64294;49.176;16.626;2023-02-15T01:12:34;100947.16;;;-1.57;100.00
75681;BME280;64294;49.176;16.626;2023-02-15T01:15:01;100931.72;;;-1.50;100.00
75681;BME280;64294;49.176;16.626;2023-02-15T01:17:27;100935.06;;;-1.36;100.00
75681;BME280;64294;49.176;16.626;2023-02-15T01:19:52;100932.56;;;-1.27;100.00
75681;BME280;64294;49.176;16.626;2023-02-15T01:22:18;100934.47;;;-1.24;100.00
75681;BME280;64294;49.176;16.626;2023-02-15T01:24:44;100939.59;;;-1.22;100.00
75681;BME280;64294;49.176;16.626;2023-02-15T01:27:09;100931.53;;;-1.13;100.00
75681;BME280;64294;49.176;16.626;2023-02-15T01:29:35;100928.75;;;-1.09;100.00
75681;BME280;64294;49.176;16.626;2023-02-15T01:32:00;100929.06;;;-1.04;100.00
75681;BME280;64294;49.176;16.626;2023-02-15T01:34:26;100928.09;;;-0.94;100.00
75681;BME280;64294;49.176;16.626;2023-02-15T01:36:51;100926.44;;;-0.87;100.00
75681;BME280;64294;49.176;16.626;2023-02-15T01:39:16;100930.69;;;-0.83;100.00
75681;BME280;64294;49.176;16.626;2023-02-15T01:41:42;100921.97;;;-0.81;100.00
75681;BME280;64294;49.176;16.626;2023-02-15T01:47:12;100912.50;;;-0.80;99.46
75681;BME280;64294;49.176;16.626;2023-02-15T01:49:43;100914.91;;;-0.82;99.75
75681;BME280;64294;49.176;16.626;2023-02-15T01:52:12;100915.25;;;-0.80;99.63
75681;BME280;64294;49.176;16.626;2023-02-15T01:54:40;100906.97;;;-0.80;99.93
75681;BME280;64294;49.176;16.626;2023-02-15T01:57:09;100903.72;;;-0.75;99.72
75681;BME280;64294;49.176;16.626;2023-02-15T01:59:37;100904.13;;;-0.77;99.65
75681;BME280;64294;49.176;16.626;2023-02-15T02:02:07;100904.63;;;-0.82;100.00
75681;BME280;64294;49.176;16.626;2023-02-15T02:04:53;100906.69;;;-0.86;99.89
75681;BME280;64294;49.176;16.626;2023-02-15T02:07:42;100900.44;;;-0.90;100.00
75681;BME280;64294;49.176;16.626;2023-02-15T02:10:13;100894.59;;;-0.96;100.00
75681;BME280;64294;49.176;16.626;2023-02-15T02:12:41;100898.22;;;-0.99;100.00
75681;BME280;64294;49.176;16.626;2023-02-15T02:15:09;100886.88;;;-1.04;100.00
75681;BME280;64294;49.176;16.626;2023-02-15T02:17:55;100879.50;;;-1.11;100.00
75681;BME280;64294;49.176;16.626;2023-02-15T02:34:17;100861.50;;;-1.42;100.00
75681;BME280;64294;49.176;16.626;2023-02-15T02:36:52;100862.63;;;-1.40;100.00
75681;BME280;64294;49.176;16.626;2023-02-15T02:42:18;100858.59;;;-1.35;100.00
75681;BME280;64294;49.176;16.626;2023-02-15T02:44:54;100862.03;;;-1.28;100.00
75681;BME280;64294;49.176;16.626;2023-02-15T02:47:47;100863.91;;;-1.21;100.00
75681;BME280;64294;49.176;16.626;2023-02-15T02:50:28;100858.22;;;-1.10;100.00
75681;BME280;64294;49.176;16.626;2023-02-15T02:52:56;100857.72;;;-1.05;100.00
75681;BME280;64294;49.176;16.626;2023-02-15T02:55:32;100860.34;;;-0.98;100.00
75681;BME280;64294;49.176;16.626;2023-02-15T02:58:09;100857.91;;;-0.93;100.00
75681;BME280;64294;49.176;16.626;2023-02-15T03:00:40;100859.69;;;-0.82;100.00
75681;BME280;64294;49.176;16.626;2023-02-15T03:03:30;100855.97;;;-0.72;99.99
75681;BME280;64294;49.176;16.626;2023-02-15T03:06:00;100859.00;;;-0.67;99.13
75681;BME280;64294;49.176;16.626;2023-02-15T03:08:36;100856.59;;;-0.65;98.75
75681;BME280;64294;49.176;16.626;2023-02-15T03:11:06;100854.19;;;-0.63;99.00
75681;BME280;64294;49.176;16.626;2023-02-15T03:13:32;100855.75;;;-0.62;98.73
75681;BME280;64294;49.176;16.626;2023-02-15T03:16:00;100858.44;;;-0.58;98.57
75681;BME280;64294;49.176;16.626;2023-02-15T03:18:48;100861.09;;;-0.51;98.07
75681;BME280;64294;49.176;16.626;2023-02-15T03:21:21;100863.84;;;-0.51;97.71
75681;BME280;64294;49.176;16.626;2023-02-15T03:23:57;100872.06;;;-0.47;98.32
75681;BME280;64294;49.176;16.626;2023-02-15T03:26:25;100852.22;;;-0.42;97.82
75681;BME280;64294;49.176;16.626;2023-02-15T03:28:54;100855.69;;;-0.38;97.52
75681;BME280;64294;49.176;16.626;2023-02-15T03:31:23;100858.44;;;-0.38;97.46
75681;BME280;64294;49.176;16.626;2023-02-15T03:34:03;100857.28;;;-0.37;97.37
75681;BME280;64294;49.176;16.626;2023-02-15T03:36:42;100851.78;;;-0.41;97.09
75681;BME280;64294;49.176;16.626;2023-02-15T03:39:22;100857.66;;;-0.39;97.32
75681;BME280;64294;49.176;16.626;2023-02-15T03:44:35;100854.44;;;-0.34;97.38
75681;BME280;64294;49.176;16.626;2023-02-15T03:47:13;100862.22;;;-0.28;97.03
75681;BME280;64294;49.176;16.626;2023-02-15T03:49:54;100860.31;;;-0.32;96.92
75681;BME280;64294;49.176;16.626;2023-02-15T03:52:25;100867.22;;;-0.23;96.96
75681;BME280;64294;49.176;16.626;2023-02-15T03:54:51;100863.94;;;-0.35;96.14
75681;BME280;64294;49.176;16.626;2023-02-15T03:57:18;100856.06;;;-0.36;95.83
75681;BME280;64294;49.176;16.626;2023-02-15T04:00:15;100863.94;;;-0.35;96.02
75681;BME280;64294;49.176;16.626;2023-02-15T04:05:45;100864.41;;;-0.40;96.82
75681;BME280;64294;49.176;16.626;2023-02-15T04:08:12;100859.19;;;-0.34;96.79
75681;BME280;64294;49.176;16.626;2023-02-15T04:10:37;100858.06;;;-0.37;96.63
75681;BME280;64294;49.176;16.626;2023-02-15T04:13:23;100855.41;;;-0.44;96.50
75681;BME280;64294;49.176;16.626;2023-02-15T04:15:49;100854.13;;;-0.39;96.45
75681;BME280;64294;49.176;16.626;2023-02-15T04:18:38;100858.25;;;-0.47;96.47
75681;BME280;64294;49.176;16.626;2023-02-15T04:21:24;100838.28;;;-0.55;96.18
75681;BME280;64294;49.176;16.626;2023-02-15T04:24:09;100836.66;;;-0.52;96.62
75681;BME280;64294;49.176;16.626;2023-02-15T04:26:55;100836.94;;;-0.47;96.55
75681;BME280;64294;49.176;16.626;2023-02-15T04:29:22;100835.03;;;-0.50;96.48
75681;BME280;64294;49.176;16.626;2023-02-15T04:31:49;100845.72;;;-0.52;96.62
75681;BME280;64294;49.176;16.626;2023-02-15T04:34:15;100841.75;;;-0.51;96.85
75681;BME280;64294;49.176;16.626;2023-02-15T04:36:41;100839.00;;;-0.51;96.71
75681;BME280;64294;49.176;16.626;2023-02-15T04:39:07;100845.78;;;-0.36;96.89
75681;BME280;64294;49.176;16.626;2023-02-15T04:41:33;100838.06;;;-0.44;96.73
75681;BME280;64294;49.176;16.626;2023-02-15T04:44:02;100836.94;;;-0.47;96.00
75681;BME280;64294;49.176;16.626;2023-02-15T04:46:28;100836.84;;;-0.43;96.24
75681;BME280;64294;49.176;16.626;2023-02-15T04:48:56;100844.00;;;-0.46;96.40
75681;BME280;64294;49.176;16.626;2023-02-15T04:51:22;100853.69;;;-0.38;96.21
75681;BME280;64294;49.176;16.626;2023-02-15T04:53:48;100853.16;;;-0.49;96.19
75681;BME280;64294;49.176;16.626;2023-02-15T04:56:14;100857.53;;;-0.51;96.34
75681;BME280;64294;49.176;16.626;2023-02-15T04:58:40;100851.31;;;-0.55;96.49
75681;BME280;64294;49.176;16.626;2023-02-15T05:01:09;100850.59;;;-0.40;96.32
75681;BME280;64294;49.176;16.626;2023-02-15T05:03:34;100854.56;;;-0.41;95.93
75681;BME280;64294;49.176;16.626;2023-02-15T05:06:00;100853.84;;;-0.45;96.37
75681;BME280;64294;49.176;16.626;2023-02-15T05:08:25;100863.28;;;-0.42;96.26
75681;BME280;64294;49.176;16.626;2023-02-15T05:10:51;100856.25;;;-0.27;95.31
75681;BME280;64294;49.176;16.626;2023-02-15T05:13:16;100848.56;;;-0.36;95.44
75681;BME280;64294;49.176;16.626;2023-02-15T05:15:47;100844.09;;;-0.29;95.90
75681;BME280;64294;49.176;16.626;2023-02-15T05:18:13;100855.28;;;-0.37;95.48
75681;BME280;64294;49.176;16.626;2023-02-15T05:20:38;100852.38;;;-0.29;95.28
75681;BME280;64294;49.176;16.626;2023-02-15T05:23:03;100853.34;;;-0.20;95.13
75681;BME280;64294;49.176;16.626;2023-02-15T05:25:29;100850.09;;;-0.15;94.29
75681;BME280;64294;49.176;16.626;2023-02-15T05:28:13;100854.50;;;-0.17;94.66
75681;BME280;64294;49.176;16.626;2023-02-15T05:30:44;100852.38;;;-0.29;94.89
75681;BME280;64294;49.176;16.626;2023-02-15T05:33:10;100855.31;;;-0.20;95.46
75681;BME280;64294;49.176;16.626;2023-02-15T05:35:35;100853.56;;;-0.31;95.49
75681;BME280;64294;49.176;16.626;2023-02-15T05:38:01;100844.72;;;-0.42;95.76
75681;BME280;64294;49.176;16.626;2023-02-15T05:40:26;100856.97;;;-0.43;95.95
75681;BME280;64294;49.176;16.626;2023-02-15T05:42:52;100849.97;;;-0.47;96.39
75681;BME280;64294;49.176;16.626;2023-02-15T05:45:17;100861.63;;;-0.40;96.30
75681;BME280;64294;49.176;16.626;2023-02-15T05:47:43;100862.13;;;-0.45;96.06
75681;BME280;64294;49.176;16.626;2023-02-15T05:50:09;100860.94;;;-0.44;96.43
75681;BME280;64294;49.176;16.626;2023-02-15T05:52:35;100864.81;;;-0.41;96.31
75681;BME280;64294;49.176;16.626;2023-02-15T05:55:01;100862.22;;;-0.28;95.71
75681;BME280;64294;49.176;16.626;2023-02-15T05:57:27;100868.59;;;-0.32;95.28
75681;BME280;64294;49.176;16.626;2023-02-15T05:59:53;100871.28;;;-0.28;95.30
75681;BME280;64294;49.176;16.626;2023-02-15T06:02:18;100872.84;;;-0.27;95.31
75681;BME280;64294;49.176;16.626;2023-02-15T06:04:43;100875.75;;;-0.34;95.90
75681;BME280;64294;49.176;16.626;2023-02-15T06:07:12;100869.44;;;-0.35;95.88
75681;BME280;64294;49.176;16.626;2023-02-15T06:09:37;100874.25;;;-0.39;96.42
75681;BME280;64294;49.176;16.626;2023-02-15T06:12:03;100877.09;;;-0.42;96.62
75681;BME280;64294;49.176;16.626;2023-02-15T06:14:28;100878.94;;;-0.36;95.72
75681;BME280;64294;49.176;16.626;2023-02-15T06:16:54;100889.13;;;-0.33;95.11
75681;BME280;64294;49.176;16.626;2023-02-15T06:19:19;100882.06;;;-0.34;95.62
75681;BME280;64294;49.176;16.626;2023-02-15T06:21:46;100883.69;;;-0.36;96.31
75681;BME280;64294;49.176;16.626;2023-02-15T06:24:11;100888.47;;;-0.40;96.46
75681;BME280;64294;49.176;16.626;2023-02-15T06:26:37;100897.06;;;-0.35;96.59
75681;BME280;64294;49.176;16.626;2023-02-15T06:29:03;100886.72;;;-0.31;96.67
75681;BME280;64294;49.176;16.626;2023-02-15T06:31:31;100891.41;;;-0.27;96.64
75681;BME280;64294;49.176;16.626;2023-02-15T06:33:56;100889.06;;;-0.29;97.18
75681;BME280;64294;49.176;16.626;2023-02-15T06:36:28;100893.19;;;-0.17;96.35
75681;BME280;64294;49.176;16.626;2023-02-15T06:38:54;100897.94;;;-0.18;95.52
75681;BME280;64294;49.176;16.626;2023-02-15T06:41:20;100893.66;;;-0.22;96.09
75681;BME280;64294;49.176;16.626;2023-02-15T06:43:45;100897.94;;;-0.18;95.44
75681;BME280;64294;49.176;16.626;2023-02-15T06:46:10;100886.38;;;-0.13;95.97
75681;BME280;64294;49.176;16.626;2023-02-15T06:48:36;100883.69;;;-0.16;96.21
75681;BME280;64294;49.176;16.626;2023-02-15T06:51:01;100885.09;;;-0.08;95.83
75681;BME280;64294;49.176;16.626;2023-02-15T06:53:27;100887.94;;;-0.12;95.71
75681;BME280;64294;49.176;16.626;2023-02-15T06:56:02;100884.94;;;-0.01;95.48
75681;BME280;64294;49.176;16.626;2023-02-15T06:58:28;100881.69;;;0.04;95.59
75681;BME280;64294;49.176;16.626;2023-02-15T07:00:53;100885.94;;;0.09;95.30
75681;BME280;64294;49.176;16.626;2023-02-15T07:03:19;100883.94;;;0.09;95.34
75681;BME280;64294;49.176;16.626;2023-02-15T07:05:44;100889.81;;;0.11;95.41
75681;BME280;64294;49.176;16.626;2023-02-15T07:08:13;100887.69;;;0.19;94.77
75681;BME280;64294;49.176;16.626;2023-02-15T07:10:38;100885.72;;;0.19;94.96
75681;BME280;64294;49.176;16.626;2023-02-15T07:13:04;100879.66;;;0.24;94.69
75681;BME280;64294;49.176;16.626;2023-02-15T07:15:29;100887.78;;;0.32;93.74
75681;BME280;64294;49.176;16.626;2023-02-15T07:17:57;100885.03;;;0.32;93.81
75681;BME280;64294;49.176;16.626;2023-02-15T07:20:23;100882.34;;;0.28;94.44
75681;BME280;64294;49.176;16.626;2023-02-15T07:22:49;100886.44;;;0.40;94.32
75681;BME280;64294;49.176;16.626;2023-02-15T07:25:15;100886.63;;;0.49;93.14
75681;BME280;64294;49.176;16.626;2023-02-15T07:27:41;100893.44;;;0.44;93.53
75681;BME280;64294;49.176;16.626;2023-02-15T07:30:09;100884.50;;;0.56;93.51
75681;BME280;64294;49.176;16.626;2023-02-15T07:32:35;100885.75;;;0.52;93.66
75681;BME280;64294;49.176;16.626;2023-02-15T07:35:00;100888.03;;;0.57;92.85
75681;BME280;64294;49.176;16.626;2023-02-15T07:37:26;100880.13;;;0.55;93.23
75681;BME280;64294;49.176;16.626;2023-02-15T07:39:52;100882.66;;;0.66;92.91
75681;BME280;64294;49.176;16.626;2023-02-15T07:42:20;100881.09;;;0.65;92.80
75681;BME280;64294;49.176;16.626;2023-02-15T07:44:50;100875.69;;;0.78;91.89
75681;BME280;64294;49.176;16.626;2023-02-15T07:47:16;100874.91;;;0.77;91.69
75681;BME280;64294;49.176;16.626;2023-02-15T07:49:41;100872.81;;;0.81;92.34
75681;BME280;64294;49.176;16.626;2023-02-15T07:52:06;100878.88;;;0.76;92.20
75681;BME280;64294;49.176;16.626;2023-02-15T07:54:32;100877.38;;;0.88;92.00
75681;BME280;64294;49.176;16.626;2023-02-15T07:56:57;100878.16;;;1.05;91.70
75681;BME280;64294;49.176;16.626;2023-02-15T07:59:23;100881.09;;;1.14;91.18
75681;BME280;64294;49.176;16.626;2023-02-15T08:01:49;100883.16;;;1.26;90.34
75681;BME280;64294;49.176;16.626;2023-02-15T08:04:14;100882.63;;;1.31;90.54
75681;BME280;64294;49.176;16.626;2023-02-15T08:06:40;100883.13;;;1.42;89.40
75681;BME280;64294;49.176;16.626;2023-02-15T08:09:07;100886.00;;;1.39;90.15
75681;BME280;64294;49.176;16.626;2023-02-15T08:11:36;100873.59;;;1.43;89.70
75681;BME280;64294;49.176;16.626;2023-02-15T08:16:48;100879.97;;;1.57;89.42
75681;BME280;64294;49.176;16.626;2023-02-15T08:19:21;100876.25;;;1.76;88.44
75681;BME280;64294;49.176;16.626;2023-02-15T08:21:59;100875.59;;;1.72;88.45
75681;BME280;64294;49.176;16.626;2023-02-15T08:24:27;100873.28;;;1.83;88.14
75681;BME280;64294;49.176;16.626;2023-02-15T08:26:53;100868.31;;;1.91;87.28
75681;BME280;64294;49.176;16.626;2023-02-15T08:29:22;100877.59;;;1.84;87.56
75681;BME280;64294;49.176;16.626;2023-02-15T08:31:49;100875.91;;;2.16;86.90
75681;BME280;64294;49.176;16.626;2023-02-15T08:34:17;100867.81;;;2.08;87.33
75681;BME280;64294;49.176;16.626;2023-02-15T08:36:43;100862.59;;;2.10;87.05
75681;BME280;64294;49.176;16.626;2023-02-15T08:39:13;100866.38;;;2.17;86.63
75681;BME280;64294;49.176;16.626;2023-02-15T08:41:44;100863.06;;;2.34;85.14
75681;BME280;64294;49.176;16.626;2023-02-15T08:44:10;100860.72;;;2.20;85.75
75681;BME280;64294;49.176;16.626;2023-02-15T08:46:41;100862.03;;;2.16;86.63
75681;BME280;64294;49.176;16.626;2023-02-15T08:49:07;100851.28;;;2.30;86.42
75681;BME280;64294;49.176;16.626;2023-02-15T08:51:35;100858.38;;;2.57;85.13
75681;BME280;64294;49.176;16.626;2023-02-15T08:54:04;100860.19;;;2.63;85.23
75681;BME280;64294;49.176;16.626;2023-02-15T08:56:32;100859.16;;;2.70;85.17
75681;BME280;64294;49.176;16.626;2023-02-15T08:58:58;100854.06;;;2.68;84.88
75681;BME280;64294;49.176;16.626;2023-02-15T09:01:26;100856.16;;;2.77;83.33
75681;BME280;64294;49.176;16.626;2023-02-15T09:03:57;100862.25;;;2.85;83.31
75681;BME280;64294;49.176;16.626;2023-02-15T09:06:23;100863.59;;;2.55;83.69
75681;BME280;64294;49.176;16.626;2023-02-15T09:08:49;100859.63;;;2.68;83.27
75681;BME280;64294;49.176;16.626;2023-02-15T09:11:18;100862.25;;;2.72;83.39
75681;BME280;64294;49.176;16.626;2023-02-15T09:13:53;100862.66;;;3.09;82.53
75681;BME280;64294;49.176;16.626;2023-02-15T09:16:19;100867.31;;;3.12;82.01
75681;BME280;64294;49.176;16.626;2023-02-15T09:18:46;100864.84;;;3.14;81.73
75681;BME280;64294;49.176;16.626;2023-02-15T09:21:13;100861.69;;;3.37;80.61
75681;BME280;64294;49.176;16.626;2023-02-15T09:23:44;100860.06;;;3.49;79.75
75681;BME280;64294;49.176;16.626;2023-02-15T09:26:12;100852.75;;;3.42;79.32
75681;BME280;64294;49.176;16.626;2023-02-15T09:28:38;100856.97;;;3.47;79.24
75681;BME280;64294;49.176;16.626;2023-02-15T09:31:15;100856.63;;;3.45;78.32
75681;BME280;64294;49.176;16.626;2023-02-15T09:33:42;100860.84;;;3.49;78.25
75681;BME280;64294;49.176;16.626;2023-02-15T09:38:45;100857.63;;;3.73;76.48
75681;BME280;64294;49.176;16.626;2023-02-15T10:00:57;100848.03;;;3.52;75.11
75681;BME280;64294;49.176;16.626;2023-02-15T10:03:42;100840.69;;;3.58;75.27
75681;BME280;64294;49.176;16.626;2023-02-15T10:17:24;100841.19;;;3.44;77.10
75681;BME280;64294;49.176;16.626;2023-02-15T10:20:19;100842.69;;;3.36;76.49
75681;BME280;64294;49.176;16.626;2023-02-15T10:33:40;100832.97;;;3.40;75.33
75681;BME280;64294;49.176;16.626;2023-02-15T10:39:38;100829.38;;;3.74;74.18
75681;BME280;64294;49.176;16.626;2023-02-15T10:48:09;100822.91;;;3.55;74.84
75681;BME280;64294;49.176;16.626;2023-02-15T10:50:56;100808.28;;;3.64;75.24
75681;BME280;64294;49.176;16.626;2023-02-15T10:54:09;100812.28;;;3.63;74.19
75681;BME280;64294;49.176;16.626;2023-02-15T10:57:04;100814.03;;;3.48;75.25
75681;BME280;64294;49.176;16.626;2023-02-15T11:05:45;100807.88;;;3.53;75.15
75681;BME280;64294;49.176;16.626;2023-02-15T11:08:15;100802.22;;;3.56;75.19
75681;BME280;64294;49.176;16.626;2023-02-15T11:10:50;100801.41;;;3.34;75.56
75681;BME280;64294;49.176;16.626;2023-02-15T11:13:19;100814.47;;;3.24;75.96
75681;BME280;64294;49.176;16.626;2023-02-15T11:15:56;100805.66;;;3.39;75.82
75681;BME280;64294;49.176;16.626;2023-02-15T11:23:28;100808.56;;;3.35;75.27
75681;BME280;64294;49.176;16.626;2023-02-15T11:26:02;100800.47;;;3.50;74.84
75681;BME280;64294;49.176;16.626;2023-02-15T11:28:34;100798.47;;;3.72;74.18
75681;BME280;64294;49.176;16.626;2023-02-15T11:31:13;100794.91;;;3.50;74.45
75681;BME280;64294;49.176;16.626;2023-02-15T11:33:44;100798.59;;;3.47;74.58
75681;BME280;64294;49.176;16.626;2023-02-15T11:36:21;100792.66;;;3.36;76.17
75681;BME280;64294;49.176;16.626;2023-02-15T11:38:54;100792.91;;;3.50;74.61
75681;BME280;64294;49.176;16.626;2023-02-15T11:41:23;100786.88;;;3.52;74.57
75681;BME280;64294;49.176;16.626;2023-02-15T11:46:30;100782.06;;;3.43;75.39
75681;BME280;64294;49.176;16.626;2023-02-15T11:48:56;100778.53;;;3.52;74.80
75681;BME280;64294;49.176;16.626;2023-02-15T11:51:22;100776.22;;;3.50;75.41
75681;BME280;64294;49.176;16.626;2023-02-15T11:53:49;100781.69;;;3.54;75.03
75681;BME280;64294;49.176;16.626;2023-02-15T11:56:23;100777.09;;;3.69;74.48
75681;BME280;64294;49.176;16.626;2023-02-15T11:58:58;100776.34;;;3.47;74.57
75681;BME280;64294;49.176;16.626;2023-02-15T12:01:33;100773.44;;;3.50;74.82
75681;BME280;64294;49.176;16.626;2023-02-15T12:04:14;100775.00;;;3.29;74.98
75681;BME280;64294;49.176;16.626;2023-02-15T12:06:49;100774.03;;;3.45;74.27
75681;BME280;64294;49.176;16.626;2023-02-15T12:09:24;100771.72;;;3.44;74.80
75681;BME280;64294;49.176;16.626;2023-02-15T12:11:53;100770.28;;;3.61;73.50
75681;BME280;64294;49.176;16.626;2023-02-15T12:14:19;100764.31;;;3.72;73.66
75681;BME280;64294;49.176;16.626;2023-02-15T12:16:49;100766.66;;;3.73;73.34
75681;BME280;64294;49.176;16.626;2023-02-15T12:19:33;100768.44;;;3.67;73.73
75681;BME280;64294;49.176;16.626;2023-02-15T12:22:03;100758.19;;;3.86;73.55
75681;BME280;64294;49.176;16.626;2023-02-15T12:27:13;100758.88;;;3.68;73.50
75681;BME280;64294;49.176;16.626;2023-02-15T12:29:43;100753.31;;;3.68;73.39
75681;BME280;64294;49.176;16.626;2023-02-15T12:32:31;100756.06;;;3.90;72.58
75681;BME280;64294;49.176;16.626;2023-02-15T12:35:06;100755.97;;;4.03;72.93
75681;BME280;64294;49.176;16.626;2023-02-15T12:37:33;100747.44;;;3.97;72.55
75681;BME280;64294;49.176;16.626;2023-02-15T12:40:01;100750.75;;;4.14;71.90
75681;BME280;64294;49.176;16.626;2023-02-15T12:42:41;100748.63;;;3.87;73.23
75681;BME280;64294;49.176;16.626;2023-02-15T12:47:45;100739.78;;;4.10;71.93
75681;BME280;64294;49.176;16.626;2023-02-15T12:50:24;100737.56;;;4.05;72.34
75681;BME280;64294;49.176;16.626;2023-02-15T12:53:15;100726.38;;;3.87;73.30
75681;BME280;64294;49.176;16.626;2023-02-15T12:56:01;100726.19;;;3.72;73.10
75681;BME280;64294;49.176;16.626;2023-02-15T12:58:35;100727.34;;;3.62;74.21
75681;BME280;64294;49.176;16.626;2023-02-15T13:01:03;100717.47;;;3.92;72.17
75681;BME280;64294;49.176;16.626;2023-02-15T13:03:29;100722.50;;;3.84;71.93
75681;BME280;64294;49.176;16.626;2023-02-15T13:05:56;100717.03;;;3.72;72.98
75681;BME280;64294;49.176;16.626;2023-02-15T13:08:28;100713.44;;;3.93;72.58
75681;BME280;64294;49.176;16.626;2023-02-15T13:13:27;100707.13;;;3.71;72.95
75681;BME280;64294;49.176;16.626;2023-02-15T13:16:10;100705.63;;;4.10;72.73
75681;BME280;64294;49.176;16.626;2023-02-15T13:18:38;100700.00;;;3.91;71.78
75681;BME280;64294;49.176;16.626;2023-02-15T13:21:10;100698.00;;;4.01;71.76
75681;BME280;64294;49.176;16.626;2023-02-15T13:23:37;100701.66;;;3.89;72.38
75681;BME280;64294;49.176;16.626;2023-02-15T13:26:08;100687.72;;;3.80;72.39
75681;BME280;64294;49.176;16.626;2023-02-15T13:28:41;100690.16;;;4.18;71.39
75681;BME280;64294;49.176;16.626;2023-02-15T13:31:20;100697.69;;;4.08;71.89
75681;BME280;64294;49.176;16.626;2023-02-15T13:33:49;100685.19;;;4.04;71.48
75681;BME280;64294;49.176;16.626;2023-02-15T13:52:34;100677.78;;;3.70;73.43
75681;BME280;64294;49.176;16.626;2023-02-15T13:55:28;100683.88;;;3.46;74.45
75681;BME280;64294;49.176;16.626;2023-02-15T14:06:12;100684.56;;;3.59;73.50
75681;BME280;64294;49.176;16.626;2023-02-15T14:19:50;100680.38;;;3.33;74.70
75681;BME280;64294;49.176;16.626;2023-02-15T14:22:41;100688.22;;;3.25;75.18
75681;BME280;64294;49.176;16.626;2023-02-15T14:30:50;100690.47;;;3.40;75.16
75681;BME280;64294;49.176;16.626;2023-02-15T14:33:39;100683.06;;;3.37;75.06
75681;BME280;64294;49.176;16.626;2023-02-15T14:36:07;100687.38;;;3.38;74.66
75681;BME280;64294;49.176;16.626;2023-02-15T14:41:59;100683.06;;;3.37;75.44
75681;BME280;64294;49.176;16.626;2023-02-15T14:44:36;100678.13;;;3.41;75.01
75681;BME280;64294;49.176;16.626;2023-02-15T14:47:10;100668.88;;;3.44;75.11
75681;BME280;64294;49.176;16.626;2023-02-15T14:49:39;100669.03;;;3.40;74.46
75681;BME280;64294;49.176;16.626;2023-02-15T14:52:10;100669.19;;;3.46;74.31
75681;BME280;64294;49.176;16.626;2023-02-15T15:04:35;100669.38;;;3.51;75.13
75681;BME280;64294;49.176;16.626;2023-02-15T15:07:09;100657.59;;;3.38;76.10
75681;BME280;64294;49.176;16.626;2023-02-15T15:09:41;100660.44;;;3.25;76.26
75681;BME280;64294;49.176;16.626;2023-02-15T15:12:55;100671.50;;;3.16;76.10
75681;BME280;64294;49.176;16.626;2023-02-15T15:34:33;100645.72;;;2.72;78.36
75681;BME280;64294;49.176;16.626;2023-02-15T15:48:36;100643.72;;;2.03;80.98
75681;BME280;64294;49.176;16.626;2023-02-15T15:51:29;100638.63;;;2.02;81.17
75681;BME280;64294;49.176;16.626;2023-02-15T15:53:55;100639.66;;;1.95;81.60
75681;BME280;64294;49.176;16.626;2023-02-15T15:56:28;100633.78;;;1.93;81.84
75681;BME280;64294;49.176;16.626;2023-02-15T15:59:05;100625.13;;;1.91;82.14
75681;BME280;64294;49.176;16.626;2023-02-15T16:01:43;100630.03;;;1.87;82.57
75681;BME280;64294;49.176;16.626;2023-02-15T16:04:14;100628.81;;;1.88;82.07
75681;BME280;64294;49.176;16.626;2023-02-15T16:06:46;100628.34;;;1.90;82.75
75681;BME280;64294;49.176;16.626;2023-02-15T16:09:23;100626.03;;;1.88;82.62